createdAt,value
2018-03-25T00:02:19.518Z,23.62
2018-03-25T00:04:58.565Z,22.30
2018-03-25T00:07:36.335Z,24.70
2018-03-25T00:10:12.957Z,22.55
2018-03-25T00:12:51.883Z,23.00
2018-03-25T00:15:34.704Z,22.42
2018-03-25T00:18:11.618Z,23.55
2018-03-25T00:20:48.813Z,21.60
2018-03-25T00:23:24.591Z,19.90
2018-03-25T00:26:02.241Z,22.45
2018-03-25T00:28:39.557Z,20.58
2018-03-25T00:31:16.508Z,22.90
2018-03-25T00:33:54.015Z,22.27
2018-03-25T00:36:31.211Z,19.23
2018-03-25T00:39:08.301Z,23.55
2018-03-25T00:41:46.097Z,19.25
2018-03-25T00:44:22.560Z,21.55
2018-03-25T00:47:01.393Z,21.50
2018-03-25T00:49:38.934Z,21.05
2018-03-25T00:52:14.797Z,20.40
2018-03-25T00:54:54.294Z,20.00
2018-03-25T00:57:31.837Z,20.05
2018-03-25T01:00:09.821Z,20.75
2018-03-25T01:02:44.890Z,19.35
2018-03-25T01:05:20.488Z,19.20
2018-03-25T01:07:57.602Z,18.10
2018-03-25T01:10:39.531Z,21.10
2018-03-25T01:13:16.133Z,19.45
2018-03-25T01:16:03.415Z,20.33
2018-03-25T01:18:33.176Z,20.50
2018-03-25T01:21:09.216Z,21.20
2018-03-25T01:23:47.768Z,20.58
2018-03-25T01:26:22.975Z,19.90
2018-03-25T01:28:59.419Z,19.10
2018-03-25T01:31:36.212Z,20.35
2018-03-25T01:34:19.162Z,21.50
2018-03-25T01:36:58.140Z,20.37
2018-03-25T01:39:35.439Z,21.20
2018-03-25T01:42:10.840Z,21.65
2018-03-25T01:44:52.982Z,21.35
2018-03-25T01:47:24.028Z,20.35
2018-03-25T01:50:01.173Z,20.42
2018-03-25T01:52:37.380Z,20.65
2018-03-25T01:55:13.206Z,20.92
2018-03-25T01:57:48.510Z,21.20
2018-03-25T02:00:23.664Z,20.05
2018-03-25T02:03:00.039Z,18.62
2018-03-25T02:05:34.783Z,19.87
2018-03-25T02:08:11.515Z,19.83
2018-03-25T02:10:48.893Z,21.55
2018-03-25T02:13:27.235Z,21.27
2018-03-25T02:16:02.899Z,20.75
2018-03-25T02:18:37.804Z,19.42
2018-03-25T02:21:15.305Z,21.48
2018-03-25T02:23:57.307Z,20.25
2018-03-25T02:26:34.355Z,21.37
2018-03-25T02:29:10.995Z,20.35
2018-03-25T02:31:53.777Z,20.25
2018-03-25T02:34:29.615Z,20.25
2018-03-25T02:37:06.607Z,20.17
2018-03-25T02:39:42.104Z,20.77
2018-03-25T02:42:19.457Z,21.85
2018-03-25T02:45:01.479Z,20.60
2018-03-25T02:47:36.924Z,19.95
2018-03-25T02:50:14.734Z,21.25
2018-03-25T02:52:51.559Z,22.85
2018-03-25T02:55:32.852Z,20.20
2018-03-25T02:58:15.290Z,20.15
2018-03-25T03:00:52.567Z,19.15
2018-03-25T03:03:31.879Z,19.75
2018-03-25T03:06:08.360Z,19.67
2018-03-25T03:08:45.351Z,20.52
2018-03-25T03:11:21.357Z,19.83
2018-03-25T03:13:59.411Z,22.42
2018-03-25T03:16:36.838Z,19.15
2018-03-25T03:19:13.711Z,18.67
2018-03-25T03:21:51.566Z,20.98
2018-03-25T03:24:28.249Z,21.10
2018-03-25T03:27:05.188Z,20.25
2018-03-25T03:29:40.951Z,19.95
2018-03-25T03:32:16.459Z,20.90
2018-03-25T03:34:52.571Z,20.85
2018-03-25T03:37:34.271Z,22.20
2018-03-25T03:40:09.645Z,20.33
2018-03-25T03:42:49.114Z,19.48
2018-03-25T03:45:25.632Z,20.40
2018-03-25T03:48:02.652Z,19.08
2018-03-25T03:50:37.832Z,18.83
2018-03-25T03:53:13.101Z,18.12
2018-03-25T03:55:49.354Z,19.80
2018-03-25T03:58:24.697Z,19.52
2018-03-25T04:01:01.537Z,18.60
2018-03-25T04:03:38.685Z,18.10
2018-03-25T04:06:16.239Z,20.10
2018-03-25T04:08:58.130Z,21.23
2018-03-25T04:11:34.927Z,19.80
2018-03-25T04:14:16.762Z,19.98
2018-03-25T04:16:51.849Z,21.05
2018-03-25T04:19:29.267Z,20.15
2018-03-25T04:22:04.914Z,19.60
2018-03-25T04:24:41.373Z,21.10
2018-03-25T04:27:12.093Z,19.00
2018-03-25T04:29:48.709Z,22.10
2018-03-25T04:32:30.506Z,20.52
2018-03-25T04:35:06.785Z,20.40
2018-03-25T04:37:41.858Z,19.75
2018-03-25T04:40:17.902Z,19.40
2018-03-25T04:42:55.457Z,20.23
2018-03-25T04:45:30.950Z,18.00
2018-03-25T04:48:07.403Z,20.88
2018-03-25T04:50:42.974Z,18.77
2018-03-25T04:53:19.978Z,20.48
2018-03-25T04:55:56.211Z,20.80
2018-03-25T04:58:31.137Z,19.60
2018-03-25T05:01:08.792Z,19.00
2018-03-25T05:03:45.794Z,18.95
2018-03-25T05:06:21.263Z,20.67
2018-03-25T05:08:59.806Z,21.70
2018-03-25T05:11:38.169Z,18.37
2018-03-25T05:14:17.024Z,19.27
2018-03-25T05:16:54.304Z,19.73
2018-03-25T05:19:33.581Z,22.10
2018-03-25T05:22:09.901Z,19.10
2018-03-25T05:24:46.572Z,19.95
2018-03-25T05:27:21.617Z,20.35
2018-03-25T05:29:57.984Z,22.65
2018-03-25T05:32:35.139Z,19.12
2018-03-25T05:35:10.147Z,20.52
2018-03-25T05:37:45.959Z,20.02
2018-03-25T05:40:22.369Z,20.48
2018-03-25T05:42:59.433Z,21.23
2018-03-25T05:45:36.401Z,19.60
2018-03-25T05:48:13.958Z,21.52
2018-03-25T05:50:51.039Z,20.85
2018-03-25T05:53:28.591Z,21.83
2018-03-25T05:56:03.764Z,19.40
2018-03-25T05:58:42.012Z,20.33
2018-03-25T06:01:19.319Z,21.67
2018-03-25T06:03:58.105Z,21.77
2018-03-25T06:06:35.253Z,20.70
2018-03-25T06:09:12.408Z,23.70
2018-03-25T06:11:47.520Z,20.17
2018-03-25T06:14:25.324Z,20.92
2018-03-25T06:17:00.550Z,20.67
2018-03-25T06:19:35.765Z,20.60
2018-03-25T06:22:12.307Z,21.58
2018-03-25T06:24:54.185Z,21.33
2018-03-25T06:27:31.393Z,23.15
2018-03-25T06:30:08.198Z,21.02
2018-03-25T06:32:45.565Z,20.60
2018-03-25T06:35:22.124Z,20.62
2018-03-25T06:37:58.459Z,22.00
2018-03-25T06:40:37.514Z,19.75
2018-03-25T06:43:15.365Z,19.02
2018-03-25T06:45:53.592Z,18.73
2018-03-25T06:48:31.665Z,20.67
2018-03-25T06:51:06.874Z,19.25
2018-03-25T06:55:07.834Z,22.13
2018-03-25T06:57:45.703Z,17.65
2018-03-25T07:00:22.593Z,20.05
2018-03-25T07:02:59.867Z,19.30
2018-03-25T07:05:38.476Z,19.50
2018-03-25T07:08:15.701Z,19.92
2018-03-25T07:10:53.913Z,20.40
2018-03-25T07:13:30.554Z,19.15
2018-03-25T07:16:07.243Z,19.90
2018-03-25T07:18:43.902Z,19.95
2018-03-25T07:21:25.208Z,19.75
2018-03-25T07:24:03.290Z,20.12
2018-03-25T07:26:38.634Z,19.92
2018-03-25T07:29:15.243Z,20.15
2018-03-25T07:31:52.516Z,19.85
2018-03-25T07:34:27.918Z,19.80
2018-03-25T07:37:04.454Z,18.75
2018-03-25T07:39:42.182Z,20.77
2018-03-25T07:42:19.746Z,18.48
2018-03-25T07:44:55.145Z,19.15
2018-03-25T07:47:31.771Z,20.95
2018-03-25T07:50:11.804Z,20.40
2018-03-25T07:52:45.580Z,20.83
2018-03-25T07:55:22.759Z,18.45
2018-03-25T07:58:01.204Z,19.58
2018-03-25T08:00:38.780Z,20.90
2018-03-25T08:03:16.847Z,19.48
2018-03-25T08:05:53.501Z,18.70
2018-03-25T08:08:31.725Z,20.23
2018-03-25T08:11:10.114Z,18.05
2018-03-25T08:13:49.802Z,20.27
2018-03-25T08:16:27.141Z,19.50
2018-03-25T08:19:04.965Z,18.90
2018-03-25T08:21:43.438Z,19.70
2018-03-25T08:24:20.888Z,17.57
2018-03-25T08:26:57.687Z,19.33
2018-03-25T08:29:34.880Z,19.83
2018-03-25T08:32:10.196Z,18.47
2018-03-25T08:34:48.132Z,19.93
2018-03-25T08:37:27.242Z,21.10
2018-03-25T08:40:03.485Z,22.60
2018-03-25T08:42:42.646Z,20.63
2018-03-25T08:45:18.292Z,20.90
2018-03-25T08:47:55.116Z,20.20
2018-03-25T08:50:35.088Z,19.60
2018-03-25T08:53:11.692Z,20.77
2018-03-25T08:55:47.449Z,20.70
2018-03-25T08:58:23.975Z,19.70
2018-03-25T09:01:01.213Z,19.90
2018-03-25T09:03:39.078Z,20.23
2018-03-25T09:06:18.046Z,20.77
2018-03-25T09:08:55.700Z,22.97
2018-03-25T09:11:32.178Z,21.03
2018-03-25T09:14:07.382Z,19.67
2018-03-25T09:16:45.201Z,21.63
2018-03-25T09:19:25.151Z,21.23
2018-03-25T09:22:01.945Z,23.10
2018-03-25T09:24:44.733Z,23.37
2018-03-25T09:27:22.000Z,21.90
2018-03-25T09:29:59.270Z,23.43
2018-03-25T09:32:36.260Z,23.30
2018-03-25T09:35:14.296Z,22.30
2018-03-25T09:37:53.680Z,23.30
2018-03-25T09:40:30.874Z,22.90
2018-03-25T09:43:07.593Z,21.67
2018-03-25T09:45:45.521Z,20.87
2018-03-25T09:48:26.036Z,20.70
2018-03-25T09:51:08.643Z,21.50
2018-03-25T09:53:47.671Z,18.27
2018-03-25T09:56:23.809Z,21.77
2018-03-25T09:58:59.036Z,20.70
2018-03-25T10:01:58.160Z,22.43
2018-03-25T10:04:30.273Z,22.17
2018-03-25T10:07:07.900Z,22.17
2018-03-25T10:09:45.199Z,20.47
2018-03-25T10:12:21.979Z,20.60
2018-03-25T10:14:58.394Z,20.43
2018-03-25T10:17:33.967Z,20.23
2018-03-25T10:20:10.998Z,20.73
2018-03-25T10:22:50.909Z,20.10
2018-03-25T10:25:26.782Z,19.87
2018-03-25T10:28:05.177Z,19.00
2018-03-25T10:30:44.041Z,21.00
2018-03-25T10:33:20.342Z,20.37
2018-03-25T10:35:55.413Z,22.00
2018-03-25T10:38:31.948Z,21.93
2018-03-25T10:41:14.327Z,21.60
2018-03-25T10:43:52.695Z,19.53
2018-03-25T10:46:30.085Z,19.27
2018-03-25T10:49:07.056Z,20.43
2018-03-25T10:51:44.722Z,19.80
2018-03-25T10:54:21.024Z,20.87
2018-03-25T10:56:59.274Z,19.80
2018-03-25T10:59:36.879Z,20.57
2018-03-25T11:02:16.770Z,19.07
2018-03-25T11:04:53.518Z,20.17
2018-03-25T11:07:28.918Z,20.57
2018-03-25T11:10:06.195Z,19.27
2018-03-25T11:12:43.491Z,22.23
2018-03-25T11:15:20.956Z,19.57
2018-03-25T11:17:58.001Z,18.60
2018-03-25T11:20:33.502Z,20.60
2018-03-25T11:23:12.948Z,20.20
2018-03-25T11:25:50.480Z,21.50
2018-03-25T11:28:27.639Z,19.77
2018-03-25T11:31:06.090Z,18.60
2018-03-25T11:33:41.440Z,18.90
2018-03-25T11:36:17.469Z,18.53
2018-03-25T11:38:55.003Z,18.52
2018-03-25T11:41:25.506Z,19.57
2018-03-25T11:44:01.977Z,19.73
2018-03-25T11:46:38.635Z,18.03
2018-03-25T11:49:16.279Z,19.43
2018-03-25T11:51:54.243Z,19.63
2018-03-25T11:54:29.879Z,18.10
2018-03-25T11:57:06.542Z,19.70
2018-03-25T11:59:43.448Z,20.27
2018-03-25T12:02:23.332Z,18.60
2018-03-25T12:05:02.486Z,20.20
2018-03-25T12:07:39.670Z,18.67
2018-03-25T12:10:10.842Z,19.23
2018-03-25T12:12:40.460Z,19.20
2018-03-25T12:15:19.659Z,18.47
2018-03-25T12:17:58.512Z,18.50
2018-03-25T12:20:34.913Z,19.63
2018-03-25T12:23:13.344Z,20.13
2018-03-25T12:25:49.984Z,19.20
2018-03-25T12:28:25.579Z,19.63
2018-03-25T12:31:02.940Z,19.47
2018-03-25T12:33:42.428Z,17.90
2018-03-25T12:36:22.343Z,18.63
2018-03-25T12:38:58.443Z,18.53
2018-03-25T12:41:37.946Z,18.70
2018-03-25T12:44:16.869Z,18.97
2018-03-25T12:46:55.130Z,19.60
2018-03-25T12:49:33.989Z,19.43
2018-03-25T12:52:10.570Z,18.77
2018-03-25T12:54:46.743Z,18.40
2018-03-25T12:57:24.587Z,20.10
2018-03-25T13:00:02.743Z,19.00
2018-03-25T13:02:39.975Z,19.90
2018-03-25T13:05:16.674Z,19.30
2018-03-25T13:07:58.463Z,20.83
2018-03-25T13:10:33.957Z,20.80
2018-03-25T13:13:11.004Z,20.00
2018-03-25T13:15:53.005Z,19.58
2018-03-25T13:18:29.323Z,20.37
2018-03-25T13:21:08.718Z,19.73
2018-03-25T13:23:45.733Z,20.77
2018-03-25T13:26:23.324Z,20.07
2018-03-25T13:29:01.550Z,20.00
2018-03-25T13:31:38.194Z,19.80
2018-03-25T13:34:17.646Z,18.27
2018-03-25T13:36:57.964Z,19.83
2018-03-25T13:39:35.182Z,19.57
2018-03-25T13:42:12.919Z,19.30
2018-03-25T13:44:53.023Z,21.10
2018-03-25T13:47:30.291Z,19.60
2018-03-25T13:50:05.971Z,20.30
2018-03-25T13:52:42.050Z,21.80
2018-03-25T13:55:17.332Z,20.63
2018-03-25T13:57:54.319Z,21.53
2018-03-25T14:00:31.204Z,21.73
2018-03-25T14:03:10.981Z,20.57
2018-03-25T14:05:49.387Z,19.47
2018-03-25T14:08:27.003Z,19.90
2018-03-25T14:11:04.337Z,21.37
2018-03-25T14:13:40.637Z,21.20
2018-03-25T14:16:18.745Z,19.93
2018-03-25T14:18:58.378Z,21.17
2018-03-25T14:21:37.650Z,21.27
2018-03-25T14:24:13.385Z,19.95
2018-03-25T14:26:50.145Z,20.60
2018-03-25T14:29:26.959Z,22.07
2018-03-25T14:32:05.010Z,19.57
2018-03-25T14:34:41.036Z,20.63
2018-03-25T14:37:18.439Z,20.92
2018-03-25T14:39:56.402Z,19.95
2018-03-25T14:42:35.680Z,22.00
2018-03-25T14:45:11.970Z,21.03
2018-03-25T14:47:48.210Z,20.80
2018-03-25T14:50:25.219Z,21.87
2018-03-25T14:53:02.826Z,21.00
2018-03-25T14:55:39.296Z,21.73
2018-03-25T14:58:16.632Z,21.33
2018-03-25T15:00:53.024Z,22.47
2018-03-25T15:03:30.957Z,22.50
2018-03-25T15:06:13.310Z,24.10
2018-03-25T15:08:52.110Z,25.77
2018-03-25T15:11:30.546Z,25.83
2018-03-25T15:14:06.744Z,26.50
2018-03-25T15:16:42.687Z,28.90
2018-03-25T15:19:22.464Z,28.67
2018-03-25T15:21:52.886Z,29.30
2018-03-25T15:24:30.798Z,28.43
2018-03-25T15:27:06.379Z,29.00
2018-03-25T15:29:45.343Z,28.43
2018-03-25T15:32:24.441Z,28.00
2018-03-25T15:35:01.905Z,29.33
2018-03-25T15:37:38.972Z,29.67
2018-03-25T15:40:16.087Z,29.53
2018-03-25T15:42:52.924Z,31.00
2018-03-25T15:45:29.619Z,30.45
2018-03-25T15:48:11.999Z,30.73
2018-03-25T15:50:49.973Z,29.92
2018-03-25T15:53:34.228Z,29.87
2018-03-25T15:56:11.996Z,29.30
2018-03-25T15:58:51.343Z,32.95
2018-03-25T16:01:29.680Z,27.02
2018-03-25T16:09:17.590Z,31.12
2018-03-25T16:11:53.894Z,29.83
2018-03-25T16:14:32.606Z,29.40
2018-03-25T16:17:10.444Z,29.70
2018-03-25T16:19:47.996Z,28.33
2018-03-25T16:22:26.291Z,30.85
2018-03-25T16:25:03.147Z,28.70
2018-03-25T16:27:40.492Z,30.37
2018-03-25T16:30:18.817Z,27.60
2018-03-25T16:32:56.387Z,28.33
2018-03-25T16:35:33.490Z,30.42
2018-03-25T16:38:11.498Z,29.48
2018-03-25T16:40:49.558Z,30.95
2018-03-25T16:43:26.245Z,31.80
2018-03-25T16:46:01.185Z,32.53
2018-03-25T16:48:37.177Z,32.35
2018-03-25T16:51:13.877Z,29.80
2018-03-25T16:53:52.480Z,27.30
2018-03-25T16:56:29.853Z,27.40
2018-03-25T16:59:07.351Z,27.23
2018-03-25T17:01:46.635Z,26.90
2018-03-25T17:04:22.814Z,29.67
2018-03-25T17:07:03.691Z,29.67
2018-03-25T17:09:42.239Z,31.70
2018-03-25T17:12:21.833Z,31.02
2018-03-25T17:14:59.690Z,31.62
2018-03-25T17:17:41.571Z,29.85
2018-03-25T17:20:20.532Z,30.33
2018-03-25T17:22:57.046Z,29.80
2018-03-25T17:25:39.688Z,34.22
2018-03-25T17:28:17.639Z,28.77
2018-03-25T17:30:55.619Z,28.02
2018-03-25T17:33:34.411Z,27.90
2018-03-25T17:36:10.218Z,27.48
2018-03-25T17:38:50.031Z,27.95
2018-03-25T17:41:27.629Z,26.52
2018-03-25T17:44:05.987Z,25.37
2018-03-25T17:46:43.518Z,25.25
2018-03-25T17:49:20.446Z,25.80
2018-03-25T17:52:00.069Z,25.52
2018-03-25T17:54:39.572Z,25.80
2018-03-25T17:57:15.242Z,25.10
2018-03-25T17:59:51.449Z,28.60
2018-03-25T18:02:35.143Z,25.80
2018-03-25T18:05:11.499Z,24.52
2018-03-25T18:07:47.362Z,26.33
2018-03-25T18:10:24.804Z,25.00
2018-03-25T18:13:03.204Z,25.35
2018-03-25T18:15:40.352Z,24.55
2018-03-25T18:18:16.299Z,25.50
2018-03-25T18:20:56.289Z,27.27
2018-03-25T18:23:30.554Z,23.45
2018-03-25T18:26:07.285Z,24.95
2018-03-25T18:28:43.715Z,25.62
2018-03-25T18:31:25.004Z,25.60
2018-03-25T18:34:02.459Z,26.80
2018-03-25T18:36:39.952Z,23.38
2018-03-25T18:39:17.729Z,23.25
2018-03-25T18:41:55.825Z,24.83
2018-03-25T18:44:35.711Z,23.25
2018-03-25T18:47:12.739Z,25.58
2018-03-25T18:49:48.599Z,23.33
2018-03-25T18:52:24.564Z,27.20
2018-03-25T18:55:03.807Z,27.17
2018-03-25T18:57:43.082Z,26.50
2018-03-25T19:00:18.227Z,28.08
2018-03-25T19:02:53.752Z,26.05
2018-03-25T19:05:30.904Z,24.85
2018-03-25T19:08:09.279Z,25.40
2018-03-25T19:10:47.037Z,26.42
2018-03-25T19:13:23.378Z,23.00
2018-03-25T19:16:02.276Z,23.50
2018-03-25T19:18:39.915Z,24.37
2018-03-25T19:21:15.714Z,25.15
2018-03-25T19:23:52.317Z,24.05
2018-03-25T19:26:23.007Z,23.52
2018-03-25T19:28:59.803Z,23.30
2018-03-25T19:31:36.837Z,24.23
2018-03-25T19:34:13.472Z,24.85
2018-03-25T19:36:50.167Z,23.55
2018-03-25T19:39:28.683Z,26.10
2018-03-25T19:42:06.211Z,25.92
2018-03-25T19:44:41.686Z,25.85
2018-03-25T19:47:17.221Z,36.97
2018-03-25T19:49:55.836Z,32.05
2018-03-25T19:52:32.254Z,28.70
2018-03-25T19:55:08.709Z,26.10
2018-03-25T19:57:46.230Z,28.55
2018-03-25T20:00:22.521Z,27.90
2018-03-25T20:02:58.250Z,29.92
2018-03-25T20:05:33.823Z,27.98
2018-03-25T20:08:10.436Z,26.52
2018-03-25T20:10:47.941Z,30.40
2018-03-25T20:13:25.701Z,26.70
2018-03-25T20:16:01.281Z,29.55
2018-03-25T20:18:41.648Z,29.67
2018-03-25T20:21:19.201Z,28.30
2018-03-25T20:23:54.844Z,29.23
2018-03-25T20:26:31.715Z,28.45
2018-03-25T20:29:08.322Z,28.15
2018-03-25T20:31:44.677Z,28.05
2018-03-25T20:34:21.515Z,28.42
2018-03-25T20:37:03.582Z,29.83
2018-03-25T20:39:41.221Z,29.73
2018-03-25T20:42:20.429Z,30.00
2018-03-25T20:44:57.291Z,30.55
2018-03-25T20:47:33.201Z,31.83
2018-03-25T20:50:10.598Z,29.60
2018-03-25T20:52:50.280Z,29.35
2018-03-25T20:55:26.793Z,30.02
2018-03-25T20:58:05.118Z,32.60
2018-03-25T21:00:44.133Z,31.40
2018-03-25T21:03:16.063Z,32.35
2018-03-25T21:05:55.240Z,29.58
2018-03-25T21:08:34.958Z,32.95
2018-03-25T21:11:11.668Z,31.05
2018-03-25T21:13:49.108Z,32.83
2018-03-25T21:16:25.982Z,33.67
2018-03-25T21:19:04.565Z,30.27
2018-03-25T21:21:44.631Z,31.95
2018-03-25T21:24:20.354Z,31.02
2018-03-25T21:26:56.255Z,32.17
2018-03-25T21:29:33.330Z,31.00
2018-03-25T21:32:09.802Z,32.67
2018-03-25T21:34:45.081Z,31.35
2018-03-25T21:37:21.483Z,31.95
2018-03-25T21:39:58.636Z,32.60
2018-03-25T21:42:34.147Z,31.98
2018-03-25T21:45:09.489Z,31.08
2018-03-25T21:47:46.343Z,30.12
2018-03-25T21:50:22.990Z,32.60
2018-03-25T21:52:58.390Z,34.00
2018-03-25T21:55:35.387Z,33.95
2018-03-25T21:58:11.030Z,32.55
2018-03-25T22:00:47.963Z,30.83
2018-03-25T22:03:25.551Z,33.10
2018-03-25T22:06:03.493Z,31.12
2018-03-25T22:08:42.950Z,28.87
2018-03-25T22:11:20.620Z,31.20
2018-03-25T22:13:56.480Z,30.52
2018-03-25T22:16:34.403Z,29.77
2018-03-25T22:19:12.953Z,32.53
2018-03-25T22:21:50.592Z,31.95
2018-03-25T22:24:28.316Z,29.10
2018-03-25T22:27:06.139Z,32.40
2018-03-25T22:29:43.597Z,31.08
2018-03-25T22:32:20.456Z,31.45
2018-03-25T22:34:56.983Z,33.47
2018-03-25T22:37:35.104Z,31.73
2018-03-25T22:40:11.437Z,31.27
2018-03-25T22:42:47.828Z,29.90
2018-03-25T22:45:24.357Z,32.88
2018-03-25T22:48:01.366Z,32.45
2018-03-25T22:50:38.482Z,32.55
2018-03-25T22:53:15.430Z,33.90
2018-03-25T22:55:51.223Z,33.55
2018-03-25T22:58:28.200Z,36.58
2018-03-25T23:01:03.430Z,36.35
2018-03-25T23:03:39.093Z,37.30
2018-03-25T23:06:15.700Z,36.05
2018-03-25T23:08:51.147Z,38.47
2018-03-25T23:11:28.623Z,41.67
2018-03-25T23:14:05.508Z,40.58
2018-03-25T23:16:44.146Z,41.22
2018-03-25T23:19:22.764Z,40.65
2018-03-25T23:22:00.310Z,43.33
2018-03-25T23:24:37.224Z,44.45
2018-03-25T23:27:14.370Z,43.92
2018-03-25T23:29:57.044Z,46.88
2018-03-25T23:32:33.170Z,45.83
2018-03-25T23:35:15.524Z,48.45
2018-03-25T23:37:51.244Z,49.28
2018-03-25T23:40:26.867Z,48.90
2018-03-25T23:43:03.167Z,47.83
2018-03-25T23:45:40.436Z,50.75
2018-03-25T23:48:16.863Z,48.87
2018-03-25T23:50:53.576Z,52.50
2018-03-25T23:53:28.989Z,51.33
2018-03-25T23:56:05.381Z,50.03
2018-03-25T23:58:42.227Z,50.12
